Time;durP1;ratioP1;P1;durP2;ratioP2;P2;SDS_P1;SDS_P2;PMS_P1;PMS_P2;Temp;Humidity;BMP_temperature;BMP_pressure;BME280_temperature;BME280_humidity;BME280_pressure;Samples;Min_cycle;Max_cycle;Signal;HPM_P1;HPM_P2
2022/01/11 00:01:22;;;;;;;21.10;11.90;;;4.80;99.90;;;;;;4976456;28;20178;-85
2022/01/11 00:03:48;;;;;;;19.80;12.00;;;4.80;99.90;;;;;;4976399;28;20195;-85
2022/01/11 00:08:48;;;;;;;23.20;12.50;;;4.80;99.90;;;;;;4977645;28;20187;-83
2022/01/11 00:11:14;;;;;;;33.80;18.63;;;4.60;99.90;;;;;;4976047;28;20215;-83
2022/01/11 00:13:41;;;;;;;22.80;12.30;;;4.70;99.90;;;;;;4975977;28;20182;-86
2022/01/11 00:16:09;;;;;;;37.10;23.03;;;5.00;99.90;;;;;;4977462;28;20178;-85
2022/01/11 00:18:36;;;;;;;25.17;13.07;;;4.90;99.90;;;;;;4976135;28;20217;-85
2022/01/11 00:21:03;;;;;;;27.33;17.33;;;4.90;99.90;;;;;;4975785;28;20179;-85
2022/01/11 00:25:57;;;;;;;23.07;12.00;;;4.80;99.90;;;;;;4977423;28;20167;-85
2022/01/11 00:28:25;;;;;;;42.43;25.50;;;4.80;99.90;;;;;;4976025;28;20659;-85
2022/01/11 00:30:51;;;;;;;16.77;10.93;;;4.80;99.90;;;;;;4975802;28;20635;-85
2022/01/11 00:33:24;;;;;;;23.33;12.47;;;4.80;99.90;;;;;;4975723;28;20224;-85
2022/01/11 00:35:57;;;;;;;19.77;11.50;;;4.60;99.90;;;;;;4976870;28;20155;-85
2022/01/11 00:38:25;;;;;;;20.90;12.33;;;4.60;99.90;;;;;;4976192;28;20194;-85
2022/01/11 00:40:54;;;;;;;16.80;11.20;;;4.50;99.90;;;;;;4975567;28;20183;-85
2022/01/11 00:43:21;;;;;;;25.43;12.27;;;4.40;99.90;;;;;;4975380;28;20603;-85
2022/01/11 00:45:49;;;;;;;19.37;10.83;;;4.50;99.90;;;;;;4976484;28;20179;-85
2022/01/11 00:48:14;;;;;;;16.47;9.77;;;4.50;99.90;;;;;;4975625;28;20222;-85
2022/01/11 00:50:40;;;;;;;18.53;11.00;;;4.50;99.90;;;;;;4975661;28;20182;-84
2022/01/11 00:53:07;;;;;;;17.87;11.20;;;4.60;99.90;;;;;;4975405;28;20313;-85
2022/01/11 00:55:34;;;;;;;21.13;13.53;;;4.60;99.90;;;;;;4975775;28;20171;-85
2022/01/11 00:58:00;;;;;;;17.90;10.83;;;4.70;99.90;;;;;;4975254;28;20179;-84
2022/01/11 01:00:25;;;;;;;19.27;10.17;;;4.80;99.90;;;;;;4975583;28;20209;-85
2022/01/11 01:02:51;;;;;;;18.93;10.90;;;4.80;99.90;;;;;;4975065;28;20221;-85
2022/01/11 01:05:17;;;;;;;18.93;10.37;;;4.70;99.90;;;;;;4975370;28;20197;-85
2022/01/11 01:07:46;;;;;;;17.30;9.87;;;4.60;99.90;;;;;;4975922;28;20162;-85
2022/01/11 01:10:21;;;;;;;17.13;12.00;;;4.50;99.90;;;;;;4975202;28;20294;-85
2022/01/11 01:12:48;;;;;;;16.23;10.30;;;4.60;99.90;;;;;;4974814;28;20206;-84
2022/01/11 01:15:14;;;;;;;18.93;10.00;;;4.70;99.90;;;;;;4975401;28;20202;-85
2022/01/11 01:17:40;;;;;;;18.63;10.37;;;4.60;99.90;;;;;;4975250;28;20183;-85
2022/01/11 01:20:06;;;;;;;23.87;14.97;;;4.50;99.90;;;;;;4975079;28;20167;-85
2022/01/11 01:22:33;;;;;;;17.40;10.83;;;4.50;99.90;;;;;;4974895;28;20182;-84
2022/01/11 01:24:58;;;;;;;19.47;11.17;;;4.60;99.90;;;;;;4976025;28;20253;-84
2022/01/11 01:27:24;;;;;;;21.40;11.40;;;4.50;99.90;;;;;;4974601;28;20217;-84
2022/01/11 01:29:49;;;;;;;17.07;10.13;;;4.50;99.90;;;;;;4975109;28;20174;-84
2022/01/11 01:32:15;;;;;;;18.47;11.03;;;4.50;99.90;;;;;;4974422;28;20218;-84
2022/01/11 01:34:41;;;;;;;19.07;10.27;;;4.60;99.90;;;;;;4974785;28;20202;-84
2022/01/11 01:37:07;;;;;;;13.30;8.97;;;4.50;99.90;;;;;;4974504;28;20245;-84
2022/01/11 01:39:34;;;;;;;16.87;9.70;;;4.60;99.90;;;;;;4974697;28;20258;-85
2022/01/11 01:42:05;;;;;;;16.57;9.47;;;4.50;99.90;;;;;;4974307;28;20221;-85
2022/01/11 01:44:33;;;;;;;16.63;9.03;;;4.60;99.90;;;;;;4974573;28;20217;-85
2022/01/11 01:46:58;;;;;;;20.10;10.07;;;4.40;99.90;;;;;;4975607;28;20601;-84
2022/01/11 01:49:24;;;;;;;23.60;14.30;;;4.70;99.90;;;;;;4974766;28;20206;-85
2022/01/11 01:51:51;;;;;;;134.53;53.70;;;4.70;99.90;;;;;;4974402;28;20199;-85
2022/01/11 01:54:17;;;;;;;99.70;43.23;;;4.70;99.90;;;;;;4974123;28;20221;-85
2022/01/11 01:56:43;;;;;;;58.63;27.73;;;4.70;99.90;;;;;;4974455;28;20249;-85
2022/01/11 01:59:09;;;;;;;75.47;32.13;;;4.60;99.90;;;;;;4974111;28;20282;-85
2022/01/11 02:01:42;;;;;;;46.43;23.17;;;4.80;99.90;;;;;;4974478;28;20916;-85
2022/01/11 02:04:08;;;;;;;33.43;18.93;;;4.80;99.90;;;;;;4974161;28;20639;-85
2022/01/11 02:06:34;;;;;;;73.00;36.97;;;4.80;99.90;;;;;;4974361;28;20202;-85
2022/01/11 02:08:59;;;;;;;30.03;16.60;;;4.90;99.90;;;;;;4973698;28;20184;-85
2022/01/11 02:11:25;;;;;;;17.90;10.77;;;4.70;99.90;;;;;;4973947;28;20687;-85
2022/01/11 02:13:51;;;;;;;15.07;9.63;;;4.80;99.90;;;;;;4974010;28;20206;-85
2022/01/11 02:16:21;;;;;;;19.43;10.60;;;4.70;99.90;;;;;;4974448;28;20230;-85
2022/01/11 02:18:47;;;;;;;17.23;10.03;;;4.80;99.90;;;;;;4973156;28;20233;-85
2022/01/11 02:21:13;;;;;;;14.83;9.33;;;4.80;99.90;;;;;;4973946;28;20187;-85
2022/01/11 02:23:39;;;;;;;14.30;9.80;;;4.60;99.90;;;;;;4974628;28;20196;-85
2022/01/11 02:26:05;;;;;;;16.17;9.63;;;4.70;99.90;;;;;;4973975;28;20313;-85
2022/01/11 02:28:33;;;;;;;16.00;9.90;;;4.80;99.90;;;;;;4973790;28;20706;-85
2022/01/11 02:31:00;;;;;;;14.90;9.70;;;5.00;99.90;;;;;;4973848;28;20181;-85
2022/01/11 02:33:37;;;;;;;15.57;9.33;;;5.10;99.90;;;;;;4973418;28;20202;-85
2022/01/11 02:36:14;;;;;;;15.80;9.03;;;5.00;99.90;;;;;;4973634;28;20193;-85
2022/01/11 02:38:40;;;;;;;15.77;9.53;;;5.00;99.90;;;;;;4973384;28;20181;-85
2022/01/11 02:41:06;;;;;;;16.93;10.27;;;4.90;99.90;;;;;;4973606;28;20182;-85
2022/01/11 02:43:32;;;;;;;17.37;10.40;;;4.80;99.90;;;;;;4973631;28;20694;-85
2022/01/11 02:46:01;;;;;;;17.60;9.53;;;4.90;99.90;;;;;;4973572;28;20217;-85
2022/01/11 02:48:28;;;;;;;17.07;9.60;;;4.80;99.90;;;;;;4973537;28;20729;-86
2022/01/11 02:50:54;;;;;;;17.27;9.47;;;4.80;99.90;;;;;;4973479;28;20174;-85
2022/01/11 02:53:19;;;;;;;14.00;8.63;;;4.90;99.90;;;;;;4973216;28;20183;-86
2022/01/11 02:55:46;;;;;;;19.53;9.70;;;4.80;99.90;;;;;;4973544;28;20171;-83
2022/01/11 02:58:12;;;;;;;16.57;9.10;;;4.60;99.90;;;;;;4973401;28;20182;-85
2022/01/11 03:00:39;;;;;;;13.67;8.50;;;4.70;99.90;;;;;;4973632;28;20289;-85
2022/01/11 03:03:18;;;;;;;15.60;8.87;;;4.80;99.90;;;;;;4973433;28;20189;-83
2022/01/11 03:05:52;;;;;;;16.07;8.97;;;4.80;99.90;;;;;;4973275;28;20190;-85
2022/01/11 03:08:19;;;;;;;13.67;8.63;;;4.70;99.90;;;;;;4973183;28;20197;-85
2022/01/11 03:10:47;;;;;;;16.77;9.00;;;4.60;99.90;;;;;;4973211;28;20338;-85
2022/01/11 03:13:14;;;;;;;15.97;8.10;;;4.60;99.90;;;;;;4974245;28;20313;-85
2022/01/11 03:15:40;;;;;;;18.00;9.27;;;4.70;99.90;;;;;;4973156;28;20186;-85
2022/01/11 03:18:07;;;;;;;16.43;8.10;;;4.60;99.90;;;;;;4973300;28;20199;-85
2022/01/11 03:20:34;;;;;;;16.00;8.30;;;4.70;99.90;;;;;;4973264;28;20234;-85
2022/01/11 03:23:00;;;;;;;14.53;8.27;;;4.70;99.90;;;;;;4972887;28;20270;-85
2022/01/11 03:25:26;;;;;;;13.03;7.77;;;4.70;99.90;;;;;;4966483;28;20265;-84
2022/01/11 03:27:52;;;;;;;14.00;7.90;;;4.60;99.90;;;;;;4973155;28;20281;-85
2022/01/11 03:30:18;;;;;;;13.73;8.43;;;4.40;99.90;;;;;;4976035;28;20188;-85
2022/01/11 03:32:44;;;;;;;14.37;8.30;;;4.40;99.90;;;;;;4979550;28;20320;-85
2022/01/11 03:35:11;;;;;;;14.43;8.63;;;4.50;99.90;;;;;;4980098;28;20272;-85
2022/01/11 03:37:37;;;;;;;20.00;9.70;;;4.40;99.90;;;;;;4980184;28;20653;-85
2022/01/11 03:40:10;;;;;;;15.50;10.00;;;4.70;99.90;;;;;;4980296;28;20281;-85
2022/01/11 03:42:35;;;;;;;16.97;8.40;;;4.50;99.90;;;;;;4980348;28;20232;-84
2022/01/11 03:45:02;;;;;;;16.03;8.77;;;4.60;99.90;;;;;;4979896;28;20177;-85
2022/01/11 03:47:28;;;;;;;17.27;9.30;;;4.60;99.90;;;;;;4980161;28;20181;-84
2022/01/11 03:49:54;;;;;;;13.67;8.17;;;4.50;99.90;;;;;;4979654;28;20174;-85
2022/01/11 03:52:20;;;;;;;15.77;8.87;;;4.50;99.90;;;;;;4979956;28;20213;-85
2022/01/11 03:57:26;;;;;;;12.70;8.53;;;4.60;99.90;;;;;;4997711;28;20618;-84
2022/01/11 03:59:52;;;;;;;14.83;8.07;;;4.50;99.90;;;;;;4979848;28;20181;-84
2022/01/11 04:02:18;;;;;;;15.37;8.47;;;4.30;99.90;;;;;;4979563;28;20181;-85
2022/01/11 04:04:44;;;;;;;13.53;7.83;;;4.20;99.90;;;;;;4979775;28;20190;-84
2022/01/11 04:07:09;;;;;;;13.07;7.30;;;4.20;99.90;;;;;;4979816;28;20645;-85
2022/01/11 04:09:35;;;;;;;13.37;8.33;;;4.20;99.90;;;;;;4979666;28;20260;-85
2022/01/11 04:12:01;;;;;;;17.83;8.67;;;4.20;99.90;;;;;;4979367;28;20632;-85
2022/01/11 04:14:26;;;;;;;12.13;7.97;;;4.20;99.90;;;;;;4979604;28;20201;-85
2022/01/11 04:16:52;;;;;;;16.37;8.60;;;4.40;99.90;;;;;;4979550;28;20186;-85
2022/01/11 04:19:19;;;;;;;13.77;8.53;;;4.50;99.90;;;;;;4979246;28;20639;-84
2022/01/11 04:21:45;;;;;;;16.47;8.43;;;4.50;99.90;;;;;;4979266;28;20178;-84
2022/01/11 04:24:12;;;;;;;17.23;9.30;;;4.70;99.90;;;;;;4979187;28;20721;-84
2022/01/11 04:26:39;;;;;;;13.80;8.93;;;4.80;99.90;;;;;;4996692;28;20665;-84
2022/01/11 04:29:05;;;;;;;15.03;10.07;;;4.80;99.90;;;;;;4979442;28;20178;-84
2022/01/11 04:31:31;;;;;;;18.30;8.93;;;4.70;99.90;;;;;;4979209;28;20209;-84
2022/01/11 04:33:56;;;;;;;15.20;8.87;;;4.70;99.90;;;;;;4975755;28;20742;-85
2022/01/11 04:36:22;;;;;;;15.30;9.57;;;4.50;99.90;;;;;;4975936;28;20178;-85
2022/01/11 04:38:48;;;;;;;16.23;8.97;;;4.30;99.90;;;;;;4976135;28;20570;-84
2022/01/11 04:41:13;;;;;;;17.13;8.43;;;4.30;99.90;;;;;;4974762;28;20274;-85
2022/01/11 04:43:39;;;;;;;18.77;9.33;;;4.30;99.90;;;;;;4975986;28;20549;-85
2022/01/11 04:46:05;;;;;;;15.97;8.23;;;4.30;99.90;;;;;;4975608;28;20194;-84
2022/01/11 04:48:32;;;;;;;13.13;8.20;;;4.30;99.90;;;;;;4975472;28;20646;-85
2022/01/11 04:51:03;;;;;;;15.47;9.00;;;4.20;99.90;;;;;;4975450;28;20851;-85
2022/01/11 04:53:29;;;;;;;18.33;8.73;;;4.10;99.90;;;;;;4975510;28;20197;-84
2022/01/11 04:55:56;;;;;;;14.73;8.83;;;4.00;99.90;;;;;;4975503;28;20183;-84
2022/01/11 04:58:22;;;;;;;17.97;10.63;;;4.20;99.90;;;;;;4975487;28;20178;-85
2022/01/11 05:00:48;;;;;;;18.03;9.23;;;4.20;99.90;;;;;;4975545;28;20190;-85
2022/01/11 05:03:14;;;;;;;15.40;9.17;;;4.10;99.90;;;;;;4975200;28;20186;-85
2022/01/11 05:05:39;;;;;;;16.13;9.13;;;4.20;99.90;;;;;;4975437;28;20277;-84
2022/01/11 05:08:05;;;;;;;19.73;8.73;;;4.30;99.90;;;;;;4975589;28;20178;-84
2022/01/11 05:10:32;;;;;;;18.93;9.40;;;4.20;99.90;;;;;;4976717;28;20195;-85
2022/01/11 05:12:58;;;;;;;16.37;9.00;;;4.20;99.90;;;;;;4975139;28;20351;-84
2022/01/11 05:15:25;;;;;;;17.37;9.03;;;4.20;99.90;;;;;;4975185;28;20659;-85
2022/01/11 05:17:52;;;;;;;17.27;9.13;;;4.20;99.90;;;;;;4974935;28;20182;-85
2022/01/11 05:20:19;;;;;;;16.53;9.63;;;4.10;99.90;;;;;;4975141;28;20174;-85
2022/01/11 05:22:45;;;;;;;17.80;10.13;;;4.00;99.90;;;;;;4975009;28;20185;-85
2022/01/11 05:25:14;;;;;;;17.10;9.33;;;4.10;99.90;;;;;;4975111;28;20174;-85
2022/01/11 05:27:40;;;;;;;23.70;13.63;;;4.20;99.90;;;;;;4975191;28;20673;-85
2022/01/11 05:30:08;;;;;;;27.03;13.50;;;4.30;99.90;;;;;;4975299;28;20222;-85
2022/01/11 05:32:35;;;;;;;21.37;10.50;;;4.30;99.90;;;;;;4975817;28;20222;-85
2022/01/11 05:35:02;;;;;;;21.87;10.13;;;4.30;99.90;;;;;;4977882;28;20605;-84
2022/01/11 05:37:28;;;;;;;19.97;9.40;;;4.20;99.90;;;;;;4977996;28;20200;-84
2022/01/11 05:39:54;;;;;;;22.07;10.43;;;4.30;99.90;;;;;;4978048;28;20555;-85
2022/01/11 05:42:20;;;;;;;17.33;9.53;;;4.10;99.90;;;;;;4962677;28;20266;-85
2022/01/11 05:44:46;;;;;;;17.70;9.70;;;4.20;99.90;;;;;;4958581;28;20316;-84
2022/01/11 05:47:13;;;;;;;18.27;8.83;;;4.30;99.90;;;;;;4958205;28;20574;-85
2022/01/11 05:49:38;;;;;;;23.33;11.87;;;4.20;99.90;;;;;;4958596;28;20194;-84
2022/01/11 05:52:04;;;;;;;25.60;10.13;;;4.30;99.90;;;;;;4958248;28;20587;-84
2022/01/11 05:54:30;;;;;;;17.27;9.37;;;4.30;99.90;;;;;;4958290;28;20280;-85
2022/01/11 05:56:55;;;;;;;17.70;9.53;;;4.40;99.90;;;;;;4958408;28;20643;-84
2022/01/11 05:59:21;;;;;;;18.87;9.47;;;4.40;99.90;;;;;;4958216;28;20179;-84
2022/01/11 06:01:46;;;;;;;18.63;9.33;;;4.50;99.90;;;;;;4957825;28;20206;-84
2022/01/11 06:04:12;;;;;;;18.50;9.40;;;4.30;99.90;;;;;;4957426;28;20241;-84
2022/01/11 06:06:38;;;;;;;18.73;9.07;;;4.30;99.90;;;;;;4957259;28;20186;-84
2022/01/11 06:09:03;;;;;;;21.77;9.80;;;4.40;99.90;;;;;;4957313;28;20186;-84
2022/01/11 06:11:30;;;;;;;18.00;8.83;;;4.50;99.90;;;;;;4956971;28;20277;-85
2022/01/11 06:13:56;;;;;;;16.07;8.87;;;4.50;99.90;;;;;;4957042;28;20190;-85
2022/01/11 06:16:22;;;;;;;17.87;9.80;;;4.50;99.90;;;;;;4957046;28;20170;-84
2022/01/11 06:18:49;;;;;;;20.83;9.87;;;4.70;99.90;;;;;;4957119;28;20182;-85
2022/01/11 06:21:14;;;;;;;15.63;8.30;;;4.60;99.90;;;;;;4957130;28;20186;-84
2022/01/11 06:23:40;;;;;;;16.73;8.13;;;4.70;99.90;;;;;;4978343;28;20237;-84
2022/01/11 06:26:06;;;;;;;16.30;8.23;;;4.70;99.90;;;;;;4955348;28;20178;-85
2022/01/11 06:28:31;;;;;;;16.23;8.33;;;4.80;99.90;;;;;;4950932;28;20183;-84
2022/01/11 06:30:57;;;;;;;20.63;10.13;;;4.80;99.90;;;;;;4951286;29;20628;-84
2022/01/11 06:33:23;;;;;;;13.73;8.20;;;4.70;99.90;;;;;;4942579;28;20229;-84
2022/01/11 06:35:48;;;;;;;17.80;8.40;;;4.80;99.90;;;;;;4972762;28;20662;-84
2022/01/11 06:38:14;;;;;;;17.33;8.17;;;4.90;99.90;;;;;;4972567;28;20174;-84
2022/01/11 06:40:41;;;;;;;15.70;8.50;;;4.90;99.90;;;;;;4972804;28;20241;-84
2022/01/11 06:43:07;;;;;;;16.50;8.13;;;4.80;99.90;;;;;;4969275;28;20179;-87
2022/01/11 06:45:33;;;;;;;20.00;9.07;;;4.70;99.90;;;;;;4967532;28;20302;-86
2022/01/11 06:48:00;;;;;;;18.17;9.50;;;4.50;99.90;;;;;;4953163;28;20687;-87
2022/01/11 06:50:26;;;;;;;16.63;8.77;;;4.50;99.90;;;;;;4953254;28;20179;-87
2022/01/11 06:52:52;;;;;;;18.60;8.77;;;4.60;99.90;;;;;;4957437;28;20253;-87
2022/01/11 06:55:19;;;;;;;20.53;9.03;;;4.50;99.90;;;;;;4961604;28;20199;-87
2022/01/11 06:57:45;;;;;;;20.83;9.17;;;4.60;99.90;;;;;;4967194;28;20237;-87
2022/01/11 07:00:12;;;;;;;17.03;9.53;;;4.50;99.90;;;;;;4963616;28;20215;-86
2022/01/11 07:02:38;;;;;;;15.67;8.40;;;4.40;99.90;;;;;;4959848;28;20205;-87
2022/01/11 07:05:04;;;;;;;19.37;10.00;;;4.50;99.90;;;;;;4965615;28;20212;-87
2022/01/11 07:07:30;;;;;;;26.67;12.07;;;4.60;99.90;;;;;;4961797;28;20199;-86
2022/01/11 07:09:56;;;;;;;21.53;9.83;;;4.60;99.90;;;;;;4968222;28;20214;-87
2022/01/11 07:12:22;;;;;;;16.20;9.07;;;4.70;99.90;;;;;;4973847;28;20726;-87
2022/01/11 07:14:47;;;;;;;17.73;9.43;;;4.70;99.90;;;;;;4957564;28;20211;-87
2022/01/11 11:02:34;;;;;;;11.80;6.50;;;14.40;92.60;;;;;;6065144;23;21197;-87
2022/01/11 12:09:12;;;;;;;;;;;;;;;;;;;;;
2022/01/11 13:04:11;;;;;;;11.63;5.67;;;10.90;94.30;;;;;;4887218;29;20647;-94
2022/01/11 13:10:53;;;;;;;;;;;;;;;;;;;;;
2022/01/11 13:14:29;;;;;;;;;;;;;;;;;;;;;
2022/01/11 13:25:08;;;;;;;;;;;;;;;;;;;;;
2022/01/11 13:41:49;;;;;;;;;;;;;;;;;;;;;
2022/01/11 13:59:31;;;;;;;;;;;;;;;;;;;;;
2022/01/11 14:33:05;;;;;;;8.53;4.50;;;9.10;96.20;;;;;;4804347;29;20236;-94
2022/01/11 14:36:45;;;;;;;;;;;;;;;;;;;;;
2022/01/11 14:39:54;;;;;;;;;;;;;;;;;;;;;
2022/01/11 14:43:10;;;;;;;;;;;;;;;;;;;;;
2022/01/11 14:45:49;;;;;;;9.20;5.57;;;8.80;97.20;;;;;;4942506;28;20186;-92
2022/01/11 16:18:52;;;;;;;9.67;5.20;;;7.80;99.90;;;;;;5694977;23;20276;-83
2022/01/11 16:21:18;;;;;;;14.60;6.67;;;7.80;99.90;;;;;;4973946;28;20222;-85
2022/01/11 16:23:43;;;;;;;12.40;6.03;;;7.80;99.90;;;;;;4972277;28;20667;-83
2022/01/11 16:26:11;;;;;;;9.63;5.60;;;7.70;99.90;;;;;;4973433;28;20184;-83
2022/01/11 16:28:37;;;;;;;11.87;6.20;;;7.60;99.90;;;;;;4976004;28;20181;-83
2022/01/11 16:31:04;;;;;;;13.37;5.70;;;7.50;99.90;;;;;;4992846;28;20174;-82
2022/01/11 16:33:30;;;;;;;14.53;5.50;;;7.70;99.90;;;;;;4975467;28;20243;-83
2022/01/11 16:35:55;;;;;;;11.73;5.80;;;7.70;99.90;;;;;;4975550;28;20236;-82
2022/01/11 16:38:23;;;;;;;12.60;5.80;;;7.70;99.90;;;;;;4994936;28;20188;-82
2022/01/11 16:43:19;;;;;;;16.17;6.43;;;7.50;99.90;;;;;;4996291;28;20180;-82
2022/01/11 16:45:48;;;;;;;13.57;6.30;;;7.40;99.90;;;;;;4978986;28;20174;-85
2022/01/11 16:48:15;;;;;;;16.23;6.33;;;7.70;99.90;;;;;;4978632;28;20180;-82
2022/01/11 16:50:41;;;;;;;14.33;6.77;;;7.70;99.90;;;;;;4978956;28;20236;-86
2022/01/11 16:53:11;;;;;;;17.27;6.63;;;7.60;99.90;;;;;;4978558;28;20213;-86
2022/01/11 16:55:37;;;;;;;14.57;6.57;;;7.80;99.90;;;;;;4978716;28;20675;-83
2022/01/11 16:58:04;;;;;;;15.37;7.00;;;7.70;99.90;;;;;;4978529;28;20192;-84
2022/01/11 17:00:31;;;;;;;12.13;6.17;;;7.70;99.90;;;;;;4978696;28;20178;-82
2022/01/11 17:02:58;;;;;;;13.60;6.77;;;7.80;99.90;;;;;;4978511;28;20406;-84
2022/01/11 17:05:25;;;;;;;13.70;6.43;;;7.80;99.90;;;;;;4996495;28;20250;-85
2022/01/11 17:07:51;;;;;;;13.30;6.87;;;7.70;99.90;;;;;;4978530;28;20173;-82
2022/01/11 17:10:19;;;;;;;13.40;7.07;;;7.70;99.90;;;;;;4978517;28;20207;-85
2022/01/11 17:12:45;;;;;;;17.10;7.40;;;7.70;99.90;;;;;;4978586;28;20209;-82
2022/01/11 17:15:10;;;;;;;20.93;8.47;;;7.50;99.90;;;;;;4978833;28;20536;-84
2022/01/11 17:17:36;;;;;;;16.00;6.73;;;7.40;99.90;;;;;;4978245;28;20276;-82
2022/01/11 17:20:05;;;;;;;23.37;9.23;;;7.40;99.90;;;;;;4978054;28;20201;-85
2022/01/11 17:22:31;;;;;;;24.40;10.27;;;7.40;99.90;;;;;;4995284;28;20170;-84
2022/01/11 17:24:57;;;;;;;15.33;7.53;;;7.40;99.90;;;;;;4995758;28;20171;-84
2022/01/11 17:27:24;;;;;;;12.77;6.53;;;7.30;99.90;;;;;;4995869;28;20181;-84
2022/01/11 17:29:50;;;;;;;17.47;7.17;;;7.40;99.90;;;;;;4995587;28;20172;-83
2022/01/11 17:32:15;;;;;;;15.13;7.13;;;7.30;99.90;;;;;;4977697;28;20664;-84
2022/01/11 17:34:41;;;;;;;13.03;6.40;;;7.30;99.90;;;;;;4978126;28;20265;-82
2022/01/11 17:37:07;;;;;;;18.07;7.17;;;7.30;99.90;;;;;;4995095;28;20175;-83
2022/01/11 17:39:33;;;;;;;15.73;8.17;;;7.30;99.90;;;;;;4978053;28;20583;-83
2022/01/11 17:41:59;;;;;;;15.67;7.17;;;7.30;99.90;;;;;;4995083;28;20198;-81
2022/01/11 17:44:25;;;;;;;17.97;7.37;;;7.30;99.90;;;;;;4977713;28;20593;-83
2022/01/11 17:46:52;;;;;;;22.73;10.50;;;7.20;99.90;;;;;;4977761;28;20518;-84
2022/01/11 17:49:18;;;;;;;21.20;10.10;;;7.10;99.90;;;;;;4994824;28;20186;-84
2022/01/11 17:51:44;;;;;;;19.53;9.70;;;7.20;99.90;;;;;;4977390;28;20174;-84
2022/01/11 17:54:10;;;;;;;18.20;8.93;;;7.10;99.90;;;;;;4977595;28;20178;-84
2022/01/11 17:56:38;;;;;;;14.57;7.50;;;7.00;99.90;;;;;;4995249;28;20289;-84
2022/01/11 17:59:04;;;;;;;14.67;7.00;;;7.00;99.90;;;;;;4977576;28;20201;-84
2022/01/11 18:01:30;;;;;;;15.97;8.33;;;7.10;99.90;;;;;;4977607;28;20546;-83
2022/01/11 18:03:56;;;;;;;13.13;7.13;;;7.20;99.90;;;;;;4977682;28;20595;-84
2022/01/11 18:06:22;;;;;;;14.17;7.17;;;7.30;99.90;;;;;;4977283;28;20178;-83
2022/01/11 18:08:49;;;;;;;16.70;8.10;;;7.20;99.90;;;;;;4977332;28;20201;-84
2022/01/11 18:11:16;;;;;;;17.13;8.17;;;7.10;99.90;;;;;;4994923;28;20178;-84
2022/01/11 18:13:43;;;;;;;25.07;11.60;;;7.00;99.90;;;;;;4977161;28;20213;-83
2022/01/11 18:16:10;;;;;;;22.10;9.43;;;7.10;99.90;;;;;;4994798;28;20172;-84
2022/01/11 18:18:36;;;;;;;13.57;7.27;;;7.00;99.90;;;;;;4994620;28;20188;-85
2022/01/11 18:21:02;;;;;;;17.43;7.70;;;6.90;99.90;;;;;;4973321;28;20265;-83
2022/01/11 18:23:29;;;;;;;12.67;7.23;;;7.00;99.90;;;;;;4968464;28;20233;-83
2022/01/11 18:25:55;;;;;;;14.40;8.40;;;7.00;99.90;;;;;;4977848;28;20576;-84
2022/01/11 18:28:21;;;;;;;14.97;7.03;;;6.90;99.90;;;;;;4973921;28;20275;-84
2022/01/11 18:30:47;;;;;;;19.27;7.80;;;7.00;99.90;;;;;;4965396;28;20277;-84
2022/01/11 18:33:15;;;;;;;16.20;7.87;;;6.80;99.90;;;;;;4975472;28;20209;-83
2022/01/11 18:35:41;;;;;;;17.60;7.60;;;6.60;99.90;;;;;;4975472;28;20270;-81
2022/01/11 18:38:08;;;;;;;14.93;7.27;;;6.60;99.90;;;;;;4976221;28;20220;-83
2022/01/11 18:40:35;;;;;;;18.07;7.23;;;6.70;99.90;;;;;;4993543;28;20184;-83
2022/01/11 18:43:01;;;;;;;18.40;8.07;;;6.70;99.90;;;;;;4975910;28;20178;-84
2022/01/11 18:45:27;;;;;;;18.10;7.40;;;6.70;99.90;;;;;;4975547;28;20189;-84
2022/01/11 18:47:52;;;;;;;15.20;7.93;;;6.70;99.90;;;;;;4993408;28;20182;-82
2022/01/11 18:50:20;;;;;;;12.50;6.90;;;6.70;99.90;;;;;;4975851;28;20553;-83
2022/01/11 18:52:45;;;;;;;13.77;7.40;;;6.50;99.90;;;;;;4993553;28;20245;-83
2022/01/11 18:55:11;;;;;;;17.43;7.63;;;6.40;99.90;;;;;;4975832;28;20266;-83
2022/01/11 18:57:37;;;;;;;16.27;7.87;;;6.40;99.90;;;;;;4975657;28;20264;-84
2022/01/11 19:00:11;;;;;;;14.10;7.37;;;6.40;99.90;;;;;;4975636;28;20631;-84
2022/01/11 19:02:37;;;;;;;19.00;8.30;;;6.50;99.90;;;;;;4974120;28;20524;-83
2022/01/11 19:05:06;;;;;;;15.90;7.27;;;6.50;99.90;;;;;;4975689;28;20185;-84
2022/01/11 19:07:32;;;;;;;15.70;7.77;;;6.50;99.90;;;;;;4993224;28;20178;-82
2022/01/11 19:09:58;;;;;;;16.83;8.17;;;6.40;99.90;;;;;;4975506;28;20675;-83
2022/01/11 19:12:24;;;;;;;17.57;8.53;;;6.50;99.90;;;;;;4975843;28;20308;-84
2022/01/11 19:14:51;;;;;;;18.97;8.53;;;6.40;99.90;;;;;;4975242;28;20324;-83
2022/01/11 19:17:22;;;;;;;17.60;8.43;;;6.40;99.90;;;;;;4975891;28;20185;-83
2022/01/11 19:19:54;;;;;;;19.47;8.60;;;6.30;99.90;;;;;;4975173;28;20202;-83
2022/01/11 19:22:21;;;;;;;20.93;9.23;;;6.20;99.90;;;;;;4972124;28;20192;-84
2022/01/11 19:24:50;;;;;;;16.93;8.90;;;6.40;99.90;;;;;;4975205;28;20193;-83
2022/01/11 19:27:15;;;;;;;17.90;9.20;;;6.60;99.90;;;;;;4975282;28;20187;-82
2022/01/11 19:29:43;;;;;;;21.17;10.50;;;6.60;99.90;;;;;;4992687;28;20693;-83
2022/01/11 19:32:10;;;;;;;18.70;9.23;;;6.30;99.90;;;;;;4992751;28;20205;-83
2022/01/11 19:34:37;;;;;;;18.17;9.17;;;6.30;99.90;;;;;;4991150;28;20181;-82
2022/01/11 19:37:03;;;;;;;18.40;9.13;;;6.30;99.90;;;;;;4981400;28;20213;-82
2022/01/11 19:39:29;;;;;;;15.43;8.93;;;6.30;99.90;;;;;;4965973;28;20181;-83
2022/01/11 19:41:55;;;;;;;22.23;11.47;;;6.30;99.90;;;;;;4992430;28;20701;-84
2022/01/11 19:44:21;;;;;;;22.33;12.17;;;6.30;99.90;;;;;;4974798;28;20193;-83
2022/01/11 19:46:46;;;;;;;28.27;16.17;;;6.30;99.90;;;;;;4975269;28;20174;-82
2022/01/11 19:49:13;;;;;;;24.23;11.40;;;6.40;99.90;;;;;;4974985;28;20190;-83
2022/01/11 19:51:41;;;;;;;34.87;19.37;;;6.40;99.90;;;;;;4975018;28;20186;-83
2022/01/11 19:54:12;;;;;;;63.67;38.07;;;6.30;99.90;;;;;;4975133;28;20182;-83
2022/01/11 19:56:38;;;;;;;23.50;12.10;;;6.30;99.90;;;;;;4974835;28;20182;-83
2022/01/11 19:59:05;;;;;;;30.27;17.13;;;6.30;99.90;;;;;;4975203;28;20182;-83
2022/01/11 20:01:30;;;;;;;19.47;9.50;;;6.40;99.90;;;;;;4975391;28;20182;-83
2022/01/11 20:03:56;;;;;;;19.27;10.00;;;6.40;99.90;;;;;;4974964;28;20181;-83
2022/01/11 20:06:21;;;;;;;43.70;27.53;;;6.30;99.90;;;;;;4975286;28;20648;-83
2022/01/11 20:08:48;;;;;;;26.47;15.47;;;6.30;99.90;;;;;;4992277;28;20206;-83
2022/01/11 20:11:14;;;;;;;23.90;11.47;;;6.30;99.90;;;;;;4975491;28;20705;-83
2022/01/11 20:13:40;;;;;;;22.17;13.03;;;6.20;99.90;;;;;;4978674;28;20221;-83
2022/01/11 20:16:05;;;;;;;21.57;11.17;;;6.10;99.90;;;;;;4978872;28;20182;-83
2022/01/11 20:18:31;;;;;;;19.20;10.87;;;5.90;99.90;;;;;;4978157;28;20659;-83
2022/01/11 20:20:57;;;;;;;21.67;15.03;;;6.00;99.90;;;;;;4995912;28;20182;-84
2022/01/11 20:28:52;;;;;;;22.43;13.40;;;6.00;99.90;;;;;;4996224;28;20435;-83
2022/01/11 20:31:19;;;;;;;52.23;23.97;;;6.10;99.90;;;;;;4995640;28;20222;-84
2022/01/11 20:33:45;;;;;;;33.00;17.07;;;6.10;99.90;;;;;;4969167;28;20218;-85
2022/01/11 20:36:11;;;;;;;24.60;12.30;;;6.20;99.90;;;;;;4970338;28;20182;-83
2022/01/11 20:38:39;;;;;;;17.83;10.30;;;6.00;99.90;;;;;;4977500;28;20227;-83
2022/01/11 20:41:06;;;;;;;22.43;11.03;;;6.10;99.90;;;;;;4961750;28;20170;-82
2022/01/11 20:43:34;;;;;;;20.00;10.70;;;6.10;99.90;;;;;;4972101;28;20223;-82
2022/01/11 20:46:01;;;;;;;22.00;11.90;;;6.10;99.90;;;;;;4960151;28;20183;-82
2022/01/11 20:48:27;;;;;;;23.37;12.57;;;6.10;99.90;;;;;;4975940;28;20189;-83
2022/01/11 20:50:58;;;;;;;21.23;11.73;;;5.90;99.90;;;;;;4977499;28;20229;-83
2022/01/11 20:53:26;;;;;;;22.50;12.37;;;5.90;99.90;;;;;;4993875;28;20249;-83
2022/01/11 20:55:55;;;;;;;21.27;11.10;;;6.30;99.90;;;;;;4975984;28;20182;-83
2022/01/11 20:58:22;;;;;;;25.80;15.67;;;6.20;99.90;;;;;;4976186;28;20197;-83
2022/01/11 21:00:49;;;;;;;21.83;12.37;;;6.20;99.90;;;;;;4977627;28;20209;-82
2022/01/11 21:03:16;;;;;;;24.53;12.30;;;6.10;99.90;;;;;;4976571;28;20193;-83
2022/01/11 21:05:44;;;;;;;25.07;13.23;;;6.10;99.90;;;;;;4976541;28;20192;-83
2022/01/11 21:08:11;;;;;;;24.60;11.67;;;6.10;99.90;;;;;;4966805;28;20214;-83
2022/01/11 21:10:36;;;;;;;24.90;12.37;;;6.00;99.90;;;;;;4965505;28;20942;-83
2022/01/11 21:13:03;;;;;;;25.87;13.00;;;6.10;99.90;;;;;;4964338;28;20244;-82
2022/01/11 21:15:41;;;;;;;40.87;20.10;;;6.10;99.90;;;;;;4995986;28;20305;-83
2022/01/11 21:20:53;;;;;;;37.03;18.50;;;6.20;99.90;;;;;;4996961;28;20205;-83
2022/01/11 21:23:21;;;;;;;161.37;76.90;;;6.10;99.90;;;;;;4996204;28;20264;-82
2022/01/11 21:25:50;;;;;;;112.33;55.10;;;6.00;99.90;;;;;;4996722;28;20190;-82
2022/01/11 21:28:17;;;;;;;44.90;23.03;;;6.00;99.90;;;;;;4978155;28;20197;-82
2022/01/11 21:30:43;;;;;;;41.47;25.07;;;5.90;99.90;;;;;;4977340;28;20182;-83
2022/01/11 21:33:09;;;;;;;42.60;27.00;;;6.00;99.90;;;;;;4976717;28;20216;-83
2022/01/11 21:35:39;;;;;;;28.30;14.00;;;6.00;99.90;;;;;;4977369;28;20193;-82
2022/01/11 21:38:08;;;;;;;24.40;13.37;;;6.00;99.90;;;;;;4994446;28;20318;-83